Phoenix, Arizona
Current Conditions -  °F | °C
As of 3:51 AM on Wednesday 26 Nov 2014 (Local Time) from KPHX Reporting Station
Clear Clear  
Wind Chill: 45°   Ceiling: Unl
Heat Index: 48°   Visibility: 10mi
Dew Point: 16°   Wind: 7mph
Humidity: 28%   Direction: 100°E
Pressure: 30.28"   Gusts: NA
Location:  33.45°N, 112.08°W
Report Text: KPHX 261051Z 10006KT 10SM CLR 09/M09 A3028 RMK AO2 SLP249 T00891089
Loading
Personal Weather Stations






























Interactive Weather Map New forecast layout! Learn more

10-Day Weather Forecast

Advertisements
Track Severe Weather on mobile